Time;durP1;ratioP1;P1;durP2;ratioP2;P2;SDS_P1;SDS_P2;PMS_P1;PMS_P2;Temp;Humidity;BMP_temperature;BMP_pressure;BME280_temperature;BME280_humidity;BME280_pressure;Samples;Min_cycle;Max_cycle;Signal;HPM_P1;HPM_P2
2023/12/18 00:01:57;;;;;;;20.87;9.43;;;;;;;;;;6275318;22;20293;-57
2023/12/18 00:04:24;;;;;;;22.80;10.27;;;;;;;;;;6276097;22;20139;-55
2023/12/18 00:06:51;;;;;;;18.90;9.67;;;;;;;;;;6302711;22;20124;-56
2023/12/18 00:09:17;;;;;;;20.43;9.00;;;;;;;;;;6276636;22;20174;-58
2023/12/18 00:11:43;;;;;;;16.20;9.47;;;;;;;;;;6276488;22;20140;-54
2023/12/18 00:14:10;;;;;;;20.93;9.63;;;;;;;;;;6303168;22;20134;-55
2023/12/18 00:16:36;;;;;;;28.17;9.50;;;;;;;;;;6302235;22;20155;-57
2023/12/18 00:19:04;;;;;;;19.53;8.80;;;;;;;;;;6275817;22;20214;-54
2023/12/18 00:21:30;;;;;;;18.37;9.83;;;;;;;;;;6274433;22;20159;-56
2023/12/18 00:23:56;;;;;;;19.83;9.10;;;;;;;;;;6302937;22;20514;-55
2023/12/18 00:26:23;;;;;;;19.73;9.40;;;;;;;;;;6274449;22;20152;-54
2023/12/18 00:28:50;;;;;;;23.33;10.93;;;;;;;;;;6275990;22;20431;-57
2023/12/18 00:31:16;;;;;;;18.37;9.63;;;;;;;;;;6277051;22;20153;-54
2023/12/18 00:33:42;;;;;;;24.87;10.23;;;;;;;;;;6278653;22;20208;-53
2023/12/18 00:36:08;;;;;;;22.20;10.57;;;;;;;;;;6305139;22;20162;-54
2023/12/18 00:38:34;;;;;;;23.67;10.13;;;;;;;;;;6278379;22;20171;-55
2023/12/18 00:41:00;;;;;;;19.90;10.07;;;;;;;;;;6304581;22;20206;-55
2023/12/18 00:43:27;;;;;;;15.97;9.40;;;;;;;;;;6276727;22;20135;-56
2023/12/18 00:45:53;;;;;;;21.97;10.33;;;;;;;;;;6276815;22;20144;-55
2023/12/18 00:48:19;;;;;;;29.30;11.00;;;;;;;;;;6276991;22;20377;-54
2023/12/18 00:50:45;;;;;;;16.27;9.40;;;;;;;;;;6276838;22;20170;-56
2023/12/18 00:53:16;;;;;;;24.53;9.90;;;;;;;;;;6275566;22;20151;-53
2023/12/18 00:55:42;;;;;;;21.30;9.70;;;;;;;;;;6275292;22;20202;-55
2023/12/18 00:58:09;;;;;;;18.40;10.30;;;;;;;;;;6275380;22;20525;-57
2023/12/18 01:00:35;;;;;;;27.30;10.27;;;;;;;;;;6274713;22;20132;-56
2023/12/18 01:03:01;;;;;;;20.00;9.43;;;;;;;;;;6274696;22;20138;-55
2023/12/18 01:05:27;;;;;;;18.33;10.13;;;;;;;;;;6274578;22;20136;-57
2023/12/18 01:07:53;;;;;;;26.23;9.73;;;;;;;;;;6275482;22;20135;-51
2023/12/18 01:10:19;;;;;;;34.50;11.13;;;;;;;;;;6276374;22;20152;-54
2023/12/18 01:12:45;;;;;;;17.77;9.93;;;;;;;;;;6302722;22;20400;-56
2023/12/18 01:15:11;;;;;;;20.47;10.13;;;;;;;;;;6274752;22;20164;-54
2023/12/18 01:17:37;;;;;;;19.40;10.13;;;;;;;;;;6275282;22;20150;-55
2023/12/18 01:20:04;;;;;;;19.43;10.83;;;;;;;;;;6275339;22;20136;-53
2023/12/18 01:22:30;;;;;;;25.73;10.20;;;;;;;;;;6274097;22;20135;-55
2023/12/18 01:24:56;;;;;;;24.53;9.87;;;;;;;;;;6273473;22;20493;-52
2023/12/18 01:27:22;;;;;;;18.77;9.13;;;;;;;;;;6275213;22;20238;-54
2023/12/18 01:29:48;;;;;;;27.53;10.37;;;;;;;;;;6276459;22;20159;-53
2023/12/18 01:32:14;;;;;;;19.60;8.63;;;;;;;;;;6276821;22;20560;-55
2023/12/18 01:34:40;;;;;;;21.93;9.27;;;;;;;;;;6278321;22;20163;-54
2023/12/18 01:37:06;;;;;;;22.93;9.80;;;;;;;;;;6278125;22;20380;-54
2023/12/18 01:39:32;;;;;;;22.53;9.30;;;;;;;;;;6276892;22;20604;-54
2023/12/18 01:42:01;;;;;;;17.50;8.97;;;;;;;;;;6272532;22;20444;-54
2023/12/18 01:44:27;;;;;;;18.97;9.73;;;;;;;;;;6272825;22;20529;-57
2023/12/18 01:46:54;;;;;;;22.03;9.93;;;;;;;;;;6272959;22;20148;-54
2023/12/18 01:49:20;;;;;;;22.37;9.73;;;;;;;;;;6272869;22;20144;-53
2023/12/18 01:51:47;;;;;;;22.57;10.07;;;;;;;;;;6272321;22;20140;-54
2023/12/18 01:54:13;;;;;;;18.47;11.70;;;;;;;;;;6272203;22;20148;-53
2023/12/18 01:56:41;;;;;;;31.30;11.60;;;;;;;;;;6270223;22;20247;-54
2023/12/18 01:59:09;;;;;;;21.43;10.20;;;;;;;;;;6269151;22;20152;-57
2023/12/18 02:01:36;;;;;;;28.83;11.03;;;;;;;;;;6268625;22;20228;-54
2023/12/18 02:04:02;;;;;;;30.23;11.83;;;;;;;;;;6269152;22;20151;-55
2023/12/18 02:06:29;;;;;;;18.23;9.63;;;;;;;;;;6271081;22;20140;-56
2023/12/18 02:08:58;;;;;;;20.40;11.20;;;;;;;;;;6271185;22;20152;-55
2023/12/18 02:11:24;;;;;;;22.60;11.07;;;;;;;;;;6272319;22;20215;-54
2023/12/18 02:13:50;;;;;;;23.70;11.00;;;;;;;;;;6273436;22;20120;-54
2023/12/18 02:16:16;;;;;;;20.57;9.67;;;;;;;;;;6272544;22;20291;-53
2023/12/18 02:18:47;;;;;;;21.47;9.43;;;;;;;;;;6274181;22;20168;-54
2023/12/18 02:21:18;;;;;;;24.83;10.07;;;;;;;;;;6274898;22;20125;-55
2023/12/18 02:23:44;;;;;;;24.50;11.70;;;;;;;;;;6274556;22;20148;-57
2023/12/18 02:26:11;;;;;;;24.73;9.77;;;;;;;;;;6274013;22;20482;-55
2023/12/18 02:28:37;;;;;;;21.60;11.27;;;;;;;;;;6273821;22;20366;-54
2023/12/18 02:31:04;;;;;;;26.87;10.37;;;;;;;;;;6274073;22;20141;-54
2023/12/18 02:33:30;;;;;;;20.13;11.30;;;;;;;;;;6273733;22;20150;-53
2023/12/18 02:35:56;;;;;;;21.23;10.07;;;;;;;;;;6273816;22;20530;-51
2023/12/18 02:38:23;;;;;;;20.63;10.60;;;;;;;;;;6274519;22;20512;-53
2023/12/18 02:40:48;;;;;;;23.23;10.80;;;;;;;;;;6273480;22;20191;-55
2023/12/18 02:43:14;;;;;;;29.03;12.87;;;;;;;;;;6272890;22;20407;-54
2023/12/18 02:45:41;;;;;;;21.97;11.40;;;;;;;;;;6274337;22;20156;-56
2023/12/18 02:48:07;;;;;;;18.67;10.53;;;;;;;;;;6273599;22;20615;-54
2023/12/18 02:50:33;;;;;;;17.67;9.97;;;;;;;;;;6272271;22;20163;-53
2023/12/18 02:52:59;;;;;;;18.40;11.40;;;;;;;;;;6273919;22;20129;-56
2023/12/18 02:55:25;;;;;;;22.83;11.60;;;;;;;;;;6272635;22;20453;-54
2023/12/18 02:57:51;;;;;;;24.03;12.10;;;;;;;;;;6274214;22;20129;-51
2023/12/18 03:00:18;;;;;;;26.70;11.60;;;;;;;;;;6274517;22;20186;-55
2023/12/18 03:02:44;;;;;;;23.53;11.77;;;;;;;;;;6274006;22;20432;-56
2023/12/18 03:05:11;;;;;;;20.97;10.40;;;;;;;;;;6273540;22;20151;-58
2023/12/18 03:07:37;;;;;;;24.07;11.23;;;;;;;;;;6272553;22;20178;-57
2023/12/18 03:10:05;;;;;;;23.77;11.20;;;;;;;;;;6272566;22;20176;-55
2023/12/18 03:12:31;;;;;;;25.13;11.57;;;;;;;;;;6273582;22;20129;-51
2023/12/18 03:14:57;;;;;;;21.80;11.87;;;;;;;;;;6271871;22;20255;-54
2023/12/18 03:17:23;;;;;;;25.23;11.10;;;;;;;;;;6271975;22;20215;-56
2023/12/18 03:19:50;;;;;;;27.20;11.40;;;;;;;;;;6270066;22;20148;-54
2023/12/18 03:22:16;;;;;;;23.03;11.13;;;;;;;;;;6270722;22;20175;-54
2023/12/18 03:24:42;;;;;;;23.53;11.37;;;;;;;;;;6270622;22;20152;-57
2023/12/18 03:27:09;;;;;;;18.90;10.67;;;;;;;;;;6269973;22;20152;-53
2023/12/18 03:29:36;;;;;;;26.03;11.93;;;;;;;;;;6270916;22;20144;-53
2023/12/18 03:32:03;;;;;;;24.70;11.93;;;;;;;;;;6271064;22;20178;-53
2023/12/18 03:34:30;;;;;;;23.30;11.30;;;;;;;;;;6272904;22;20145;-54
2023/12/18 03:36:56;;;;;;;24.23;11.33;;;;;;;;;;6273367;22;20144;-55
2023/12/18 03:39:22;;;;;;;21.60;11.67;;;;;;;;;;6272622;22;20140;-55
2023/12/18 03:41:48;;;;;;;25.07;11.27;;;;;;;;;;6272674;22;20202;-53
2023/12/18 03:44:15;;;;;;;27.77;12.97;;;;;;;;;;6274033;22;20128;-55
2023/12/18 03:46:41;;;;;;;23.90;11.93;;;;;;;;;;6272972;22;20147;-53
2023/12/18 03:49:07;;;;;;;26.13;12.30;;;;;;;;;;6273860;22;20144;-55
2023/12/18 03:51:33;;;;;;;23.43;11.50;;;;;;;;;;6272242;22;20204;-54
2023/12/18 03:53:59;;;;;;;24.00;11.10;;;;;;;;;;6269746;22;20180;-51
2023/12/18 03:56:25;;;;;;;24.13;12.90;;;;;;;;;;6269076;22;20176;-54
2023/12/18 03:58:51;;;;;;;22.30;12.00;;;;;;;;;;6270645;22;20173;-56
2023/12/18 04:01:17;;;;;;;25.17;13.20;;;;;;;;;;6271526;22;20364;-57
2023/12/18 04:03:43;;;;;;;24.53;13.17;;;;;;;;;;6274079;22;20124;-52
2023/12/18 04:06:10;;;;;;;23.67;11.50;;;;;;;;;;6272699;22;20147;-56
2023/12/18 04:08:36;;;;;;;17.30;11.20;;;;;;;;;;6271419;22;20255;-53
2023/12/18 04:11:03;;;;;;;24.17;12.93;;;;;;;;;;6273240;22;20378;-55
2023/12/18 04:13:29;;;;;;;24.97;12.13;;;;;;;;;;6271126;22;20197;-55
2023/12/18 04:15:55;;;;;;;23.40;12.80;;;;;;;;;;6270301;22;20175;-52
2023/12/18 04:18:22;;;;;;;19.27;12.53;;;;;;;;;;6268414;22;20133;-53
2023/12/18 04:21:06;;;;;;;24.43;12.93;;;;;;;;;;6275206;22;20414;-57
2023/12/18 04:23:32;;;;;;;28.53;13.27;;;;;;;;;;6269425;22;20469;-53
2023/12/18 04:25:58;;;;;;;21.07;12.60;;;;;;;;;;6267898;22;20530;-53
2023/12/18 04:28:24;;;;;;;29.57;13.43;;;;;;;;;;6270120;22;20139;-53
2023/12/18 04:30:50;;;;;;;20.90;12.13;;;;;;;;;;6268987;22;20136;-56
2023/12/18 04:33:17;;;;;;;22.70;13.47;;;;;;;;;;6270885;22;20156;-53
2023/12/18 04:35:43;;;;;;;25.03;12.20;;;;;;;;;;6271058;22;20411;-54
2023/12/18 04:38:09;;;;;;;23.20;14.07;;;;;;;;;;6269520;22;20174;-56
2023/12/18 04:40:35;;;;;;;23.20;13.93;;;;;;;;;;6271040;22;20192;-54
2023/12/18 04:43:01;;;;;;;28.03;15.00;;;;;;;;;;6270639;22;20175;-52
2023/12/18 04:45:27;;;;;;;23.80;14.17;;;;;;;;;;6271144;22;20151;-56
2023/12/18 04:47:53;;;;;;;22.00;14.37;;;;;;;;;;6272671;22;20229;-57
2023/12/18 04:50:19;;;;;;;20.83;14.27;;;;;;;;;;6271952;22;20144;-55
2023/12/18 04:52:45;;;;;;;26.10;15.07;;;;;;;;;;6271161;22;20213;-55
2023/12/18 04:55:11;;;;;;;25.33;15.40;;;;;;;;;;6273689;22;20473;-55
2023/12/18 04:57:38;;;;;;;25.53;15.33;;;;;;;;;;6272393;22;20144;-51
2023/12/18 05:00:05;;;;;;;24.80;15.63;;;;;;;;;;6271073;22;20163;-54
2023/12/18 05:02:31;;;;;;;25.13;15.20;;;;;;;;;;6270581;22;20221;-53
2023/12/18 05:04:57;;;;;;;27.60;16.40;;;;;;;;;;6271776;22;20140;-54
2023/12/18 05:07:25;;;;;;;27.17;15.87;;;;;;;;;;6270227;22;20215;-57
2023/12/18 05:09:52;;;;;;;31.73;16.43;;;;;;;;;;6272998;22;20160;-54
2023/12/18 05:12:18;;;;;;;25.20;16.23;;;;;;;;;;6269848;22;20548;-53
2023/12/18 05:14:44;;;;;;;27.00;15.93;;;;;;;;;;6270101;22;20550;-55
2023/12/18 05:17:10;;;;;;;24.73;16.10;;;;;;;;;;6271392;22;20197;-53
2023/12/18 05:19:36;;;;;;;29.20;16.40;;;;;;;;;;6271841;22;20535;-53
2023/12/18 05:22:03;;;;;;;22.00;15.20;;;;;;;;;;6269269;22;20418;-55
2023/12/18 05:24:30;;;;;;;22.43;15.97;;;;;;;;;;6269526;22;20148;-56
2023/12/18 05:26:57;;;;;;;25.93;16.70;;;;;;;;;;6271411;22;20358;-54
2023/12/18 05:29:23;;;;;;;27.00;16.70;;;;;;;;;;6273381;22;20129;-56
2023/12/18 05:31:50;;;;;;;29.63;17.57;;;;;;;;;;6270351;22;20600;-53
2023/12/18 05:34:16;;;;;;;25.57;16.47;;;;;;;;;;6270699;22;20147;-54
2023/12/18 05:36:42;;;;;;;30.40;18.00;;;;;;;;;;6272203;22;20156;-55
2023/12/18 05:39:08;;;;;;;29.60;16.93;;;;;;;;;;6271699;22;20152;-53
2023/12/18 05:41:36;;;;;;;28.10;17.17;;;;;;;;;;6271727;22;20199;-56
2023/12/18 05:44:02;;;;;;;23.33;17.07;;;;;;;;;;6273065;22;20156;-55
2023/12/18 05:46:28;;;;;;;28.40;17.80;;;;;;;;;;6271945;22;20156;-57
2023/12/18 05:48:54;;;;;;;28.53;15.53;;;;;;;;;;6274226;22;20129;-56
2023/12/18 05:51:24;;;;;;;26.20;17.03;;;;;;;;;;6273568;22;20137;-54
2023/12/18 05:53:50;;;;;;;24.50;17.80;;;;;;;;;;6272029;22;20163;-52
2023/12/18 05:56:17;;;;;;;26.03;18.07;;;;;;;;;;6273176;22;20160;-53
2023/12/18 05:58:43;;;;;;;27.30;17.13;;;;;;;;;;6272886;22;20426;-56
2023/12/18 06:01:09;;;;;;;25.63;17.33;;;;;;;;;;6269924;22;20326;-51
2023/12/18 06:03:35;;;;;;;30.63;19.03;;;;;;;;;;6269701;22;20147;-55
2023/12/18 06:06:02;;;;;;;31.03;18.30;;;;;;;;;;6270732;22;20140;-57
2023/12/18 06:08:28;;;;;;;25.80;18.90;;;;;;;;;;6270576;22;20478;-56
2023/12/18 06:10:54;;;;;;;33.10;19.53;;;;;;;;;;6271382;22;20148;-56
2023/12/18 06:13:20;;;;;;;28.17;17.67;;;;;;;;;;6269805;22;20235;-56
2023/12/18 06:15:46;;;;;;;30.80;19.37;;;;;;;;;;6272338;22;20313;-58
2023/12/18 06:18:12;;;;;;;32.70;19.73;;;;;;;;;;6270996;22;20198;-55
2023/12/18 06:20:38;;;;;;;35.57;19.00;;;;;;;;;;6271655;22;20128;-58
2023/12/18 06:23:04;;;;;;;36.33;20.13;;;;;;;;;;6270564;22;20135;-51
2023/12/18 06:25:30;;;;;;;36.13;20.20;;;;;;;;;;6268167;22;20327;-57
2023/12/18 06:27:56;;;;;;;35.37;20.33;;;;;;;;;;6269320;22;20632;-54
2023/12/18 06:30:22;;;;;;;38.63;19.93;;;;;;;;;;6267845;22;20141;-56
2023/12/18 06:32:49;;;;;;;27.37;19.27;;;;;;;;;;6265386;22;20511;-53
2023/12/18 06:35:15;;;;;;;42.77;21.03;;;;;;;;;;6265508;22;20239;-57
2023/12/18 06:37:43;;;;;;;37.23;21.10;;;;;;;;;;6265878;22;20124;-51
2023/12/18 06:40:09;;;;;;;35.23;19.67;;;;;;;;;;6270231;22;20191;-52
2023/12/18 06:42:35;;;;;;;34.00;20.77;;;;;;;;;;6270843;22;20303;-54
2023/12/18 06:45:01;;;;;;;43.20;21.47;;;;;;;;;;6268483;22;20132;-54
2023/12/18 06:47:28;;;;;;;48.20;21.90;;;;;;;;;;6297078;22;20155;-56
2023/12/18 06:49:54;;;;;;;34.97;21.37;;;;;;;;;;6270140;22;20136;-54
2023/12/18 06:52:21;;;;;;;38.07;19.13;;;;;;;;;;6298854;22;20135;-54
2023/12/18 06:54:47;;;;;;;31.87;19.80;;;;;;;;;;6269540;22;20189;-54
2023/12/18 06:57:14;;;;;;;37.33;19.87;;;;;;;;;;6271055;22;20151;-55
2023/12/18 06:59:40;;;;;;;46.70;20.43;;;;;;;;;;6271638;22;20144;-56
2023/12/18 07:02:06;;;;;;;30.90;20.93;;;;;;;;;;6271971;22;20140;-54
2023/12/18 07:04:33;;;;;;;34.87;21.37;;;;;;;;;;6299810;22;20465;-58
2023/12/18 07:06:59;;;;;;;37.67;21.17;;;;;;;;;;6270401;22;20722;-56
2023/12/18 07:09:25;;;;;;;33.83;21.50;;;;;;;;;;6270145;22;20143;-52
2023/12/18 07:11:52;;;;;;;44.90;21.70;;;;;;;;;;6296759;22;20398;-55
2023/12/18 07:14:18;;;;;;;35.17;21.77;;;;;;;;;;6268847;22;20135;-54
2023/12/18 07:16:44;;;;;;;34.37;19.90;;;;;;;;;;6268663;22;20476;-54
2023/12/18 07:19:10;;;;;;;44.00;22.93;;;;;;;;;;6268958;22;20525;-56
2023/12/18 07:21:36;;;;;;;36.63;22.17;;;;;;;;;;6267087;22;20128;-55
2023/12/18 07:24:03;;;;;;;36.63;21.33;;;;;;;;;;6294105;22;20150;-54
2023/12/18 07:26:29;;;;;;;35.37;21.53;;;;;;;;;;6267824;22;20230;-50
2023/12/18 07:28:55;;;;;;;39.20;21.43;;;;;;;;;;6269062;22;20150;-56
2023/12/18 07:31:21;;;;;;;41.10;23.27;;;;;;;;;;6270932;22;20331;-56
2023/12/18 07:33:47;;;;;;;38.40;22.10;;;;;;;;;;6269453;22;20136;-53
2023/12/18 07:36:13;;;;;;;40.40;22.10;;;;;;;;;;6271648;22;20190;-56
2023/12/18 07:38:39;;;;;;;35.73;23.60;;;;;;;;;;6270782;22;20227;-56
2023/12/18 07:41:07;;;;;;;37.17;23.07;;;;;;;;;;6271691;22;20409;-54
2023/12/18 07:43:33;;;;;;;41.60;23.13;;;;;;;;;;6298556;22;20123;-57
2023/12/18 07:45:59;;;;;;;46.40;23.60;;;;;;;;;;6296441;22;20492;-55
2023/12/18 07:48:25;;;;;;;40.60;21.60;;;;;;;;;;6268285;22;20529;-57
2023/12/18 07:50:52;;;;;;;42.70;23.03;;;;;;;;;;6295724;22;20586;-54
2023/12/18 07:53:18;;;;;;;38.67;23.43;;;;;;;;;;6297028;22;20150;-55
2023/12/18 07:55:44;;;;;;;44.73;24.37;;;;;;;;;;6296745;22;20541;-55
2023/12/18 07:58:10;;;;;;;45.93;22.13;;;;;;;;;;6269579;22;20167;-51
2023/12/18 08:00:36;;;;;;;42.80;23.10;;;;;;;;;;6294369;22;20159;-55
2023/12/18 08:03:02;;;;;;;40.90;22.90;;;;;;;;;;6268009;22;20181;-54
2023/12/18 08:05:28;;;;;;;38.27;23.77;;;;;;;;;;6295231;22;20124;-53
2023/12/18 08:07:55;;;;;;;40.33;23.57;;;;;;;;;;6267613;22;20144;-55
2023/12/18 08:10:21;;;;;;;38.97;22.27;;;;;;;;;;6267420;22;20151;-54
2023/12/18 08:12:47;;;;;;;45.57;23.93;;;;;;;;;;6268166;22;20461;-53
2023/12/18 08:15:14;;;;;;;38.47;22.53;;;;;;;;;;6270194;22;20173;-55
2023/12/18 08:17:40;;;;;;;45.57;24.07;;;;;;;;;;6270663;22;20492;-55
2023/12/18 08:20:07;;;;;;;39.97;23.33;;;;;;;;;;6297451;22;20548;-55
2023/12/18 08:22:34;;;;;;;35.63;23.63;;;;;;;;;;6298429;22;20284;-56
2023/12/18 08:25:01;;;;;;;39.50;23.50;;;;;;;;;;6270010;22;20151;-57
2023/12/18 08:27:32;;;;;;;42.60;24.43;;;;;;;;;;6269477;22;20148;-50
2023/12/18 08:29:58;;;;;;;40.20;23.10;;;;;;;;;;6296506;22;20123;-53
2023/12/18 08:32:24;;;;;;;43.50;23.40;;;;;;;;;;6267172;22;20154;-54
2023/12/18 08:34:51;;;;;;;52.30;23.60;;;;;;;;;;6267875;22;20175;-52
2023/12/18 08:37:17;;;;;;;41.30;24.83;;;;;;;;;;6269004;22;20163;-55
2023/12/18 08:39:43;;;;;;;41.83;24.30;;;;;;;;;;6296151;22;20514;-51
2023/12/18 08:42:09;;;;;;;42.00;24.27;;;;;;;;;;6264552;22;20199;-53
2023/12/18 08:44:35;;;;;;;45.23;24.63;;;;;;;;;;6265083;22;20412;-55
2023/12/18 08:47:02;;;;;;;45.80;22.83;;;;;;;;;;6268731;22;20132;-53
2023/12/18 08:49:29;;;;;;;45.43;25.10;;;;;;;;;;6268607;22;20127;-56
2023/12/18 08:51:54;;;;;;;48.80;25.80;;;;;;;;;;6267944;22;20605;-56
2023/12/18 08:54:20;;;;;;;55.20;23.83;;;;;;;;;;6267515;22;20155;-55
2023/12/18 08:56:47;;;;;;;44.47;25.87;;;;;;;;;;6266364;22;20457;-56
2023/12/18 08:59:13;;;;;;;44.00;24.53;;;;;;;;;;6267606;22;20145;-53
2023/12/18 09:01:40;;;;;;;39.33;23.97;;;;;;;;;;6270447;22;20178;-52
2023/12/18 09:04:06;;;;;;;44.13;24.90;;;;;;;;;;6267941;22;20168;-57
2023/12/18 09:06:34;;;;;;;45.03;24.53;;;;;;;;;;6268097;22;20140;-53
2023/12/18 09:09:01;;;;;;;43.77;25.53;;;;;;;;;;6266443;22;20451;-54
2023/12/18 09:11:29;;;;;;;44.13;24.00;;;;;;;;;;6266717;22;20560;-52
2023/12/18 09:13:56;;;;;;;41.47;23.60;;;;;;;;;;6267258;22;20124;-56
2023/12/18 09:16:22;;;;;;;48.93;24.47;;;;;;;;;;6265064;22;20182;-51
2023/12/18 09:18:48;;;;;;;37.90;23.63;;;;;;;;;;6263385;22;20603;-52
2023/12/18 09:21:14;;;;;;;49.13;24.40;;;;;;;;;;6267905;22;20124;-55
2023/12/18 09:23:41;;;;;;;48.23;22.97;;;;;;;;;;6267124;22;20400;-52
2023/12/18 09:26:07;;;;;;;41.00;23.87;;;;;;;;;;6269065;22;20231;-57
2023/12/18 09:28:33;;;;;;;45.43;23.60;;;;;;;;;;6268166;22;20144;-55
2023/12/18 09:30:59;;;;;;;36.20;22.83;;;;;;;;;;6267848;22;20140;-55
2023/12/18 09:33:25;;;;;;;46.37;24.33;;;;;;;;;;6267699;22;20141;-52
2023/12/18 09:35:51;;;;;;;46.70;24.70;;;;;;;;;;6269149;22;20482;-55
2023/12/18 09:38:19;;;;;;;39.13;23.00;;;;;;;;;;6268320;22;20121;-53
2023/12/18 09:40:45;;;;;;;52.67;26.00;;;;;;;;;;6279426;22;20384;-55
2023/12/18 09:43:17;;;;;;;45.60;22.10;;;;;;;;;;6300487;22;20131;-54
2023/12/18 09:45:47;;;;;;;43.47;23.83;;;;;;;;;;6296198;22;20496;-52
2023/12/18 09:48:14;;;;;;;45.33;22.73;;;;;;;;;;6270898;22;20392;-55
2023/12/18 09:50:40;;;;;;;49.00;23.33;;;;;;;;;;6301356;22;20181;-52
2023/12/18 09:53:10;;;;;;;52.13;24.23;;;;;;;;;;6304283;22;20132;-54
2023/12/18 09:55:37;;;;;;;45.23;22.40;;;;;;;;;;6277461;22;20186;-50
2023/12/18 09:58:03;;;;;;;45.50;23.47;;;;;;;;;;6277728;22;20150;-51
2023/12/18 10:00:29;;;;;;;39.63;22.43;;;;;;;;;;6303913;22;20147;-56
2023/12/18 10:02:57;;;;;;;48.10;24.63;;;;;;;;;;6276419;22;20140;-51
2023/12/18 10:05:23;;;;;;;43.50;22.60;;;;;;;;;;6276427;22;20190;-57
2023/12/18 10:07:50;;;;;;;51.37;22.73;;;;;;;;;;6275226;22;20461;-53
2023/12/18 10:10:16;;;;;;;42.40;22.73;;;;;;;;;;6275974;22;20728;-51
2023/12/18 10:12:42;;;;;;;49.20;22.03;;;;;;;;;;6275393;22;20144;-55
2023/12/18 10:15:09;;;;;;;48.63;24.17;;;;;;;;;;6276663;22;20178;-56
2023/12/18 10:17:35;;;;;;;43.60;22.47;;;;;;;;;;6301780;22;20207;-57
2023/12/18 10:20:03;;;;;;;46.77;22.37;;;;;;;;;;6276379;22;20144;-54
2023/12/18 10:22:29;;;;;;;36.33;22.27;;;;;;;;;;6274688;22;20733;-52
2023/12/18 10:24:58;;;;;;;42.77;22.07;;;;;;;;;;6275223;22;20152;-57
2023/12/18 10:27:24;;;;;;;33.33;20.53;;;;;;;;;;6303885;22;20135;-56
2023/12/18 10:29:50;;;;;;;46.37;22.00;;;;;;;;;;6303762;22;20138;-56
2023/12/18 10:32:17;;;;;;;36.53;21.50;;;;;;;;;;6276883;22;20231;-55
2023/12/18 10:34:46;;;;;;;39.80;20.67;;;;;;;;;;6277316;22;20143;-56
2023/12/18 10:37:13;;;;;;;42.63;19.80;;;;;;;;;;6303740;22;20124;-56
2023/12/18 10:39:41;;;;;;;40.30;21.37;;;;;;;;;;6302132;22;20150;-56
2023/12/18 10:42:13;;;;;;;34.30;20.10;;;;;;;;;;6272114;22;20283;-53
2023/12/18 10:44:40;;;;;;;33.43;20.57;;;;;;;;;;6271294;22;20207;-53
2023/12/18 10:47:08;;;;;;;40.93;21.77;;;;;;;;;;6272733;22;20154;-56
2023/12/18 10:49:35;;;;;;;45.47;22.47;;;;;;;;;;6271031;22;20140;-55
2023/12/18 10:52:02;;;;;;;42.00;20.90;;;;;;;;;;6269772;22;20152;-52
2023/12/18 10:54:29;;;;;;;41.43;21.63;;;;;;;;;;6271138;22;20506;-53
2023/12/18 10:56:55;;;;;;;32.00;20.57;;;;;;;;;;6271190;22;20168;-55
2023/12/18 10:59:23;;;;;;;50.60;22.20;;;;;;;;;;6269142;22;20136;-55
2023/12/18 11:01:51;;;;;;;40.83;22.30;;;;;;;;;;6271280;22;20144;-52
2023/12/18 11:04:18;;;;;;;49.70;21.13;;;;;;;;;;6270398;22;20136;-55
2023/12/18 11:06:45;;;;;;;38.77;20.57;;;;;;;;;;6271829;22;20178;-55
2023/12/18 11:09:12;;;;;;;41.30;21.97;;;;;;;;;;6272328;22;20162;-55
2023/12/18 11:11:38;;;;;;;38.30;20.67;;;;;;;;;;6272498;22;20206;-53
2023/12/18 11:14:14;;;;;;;33.80;20.77;;;;;;;;;;6272889;22;20590;-56
2023/12/18 11:16:46;;;;;;;38.50;20.10;;;;;;;;;;6271655;22;20258;-53
2023/12/18 11:19:17;;;;;;;37.03;19.63;;;;;;;;;;6271348;22;20503;-54
2023/12/18 11:21:43;;;;;;;44.70;22.17;;;;;;;;;;6270462;22;20129;-54
2023/12/18 11:24:10;;;;;;;35.83;20.07;;;;;;;;;;6270290;22;20159;-55
2023/12/18 11:26:37;;;;;;;36.07;21.87;;;;;;;;;;6273399;22;20197;-54
2023/12/18 11:29:05;;;;;;;55.77;22.83;;;;;;;;;;6272140;22;20138;-57
2023/12/18 11:31:31;;;;;;;36.23;21.00;;;;;;;;;;6271540;22;20148;-54
2023/12/18 11:34:01;;;;;;;35.20;20.50;;;;;;;;;;6270860;22;20140;-54
2023/12/18 11:36:34;;;;;;;37.40;22.13;;;;;;;;;;5091132;27;20486;-55
2023/12/18 11:39:00;;;;;;;37.70;21.40;;;;;;;;;;5069275;28;20604;-54
2023/12/18 11:41:39;;;;;;;39.50;21.57;;;;;;;;;;5070541;28;20203;-57
2023/12/18 11:44:12;;;;;;;43.27;21.57;;;;;;;;;;5069652;28;20212;-56
2023/12/18 11:46:38;;;;;;;45.30;21.90;;;;;;;;;;5067729;28;20175;-56
2023/12/18 11:49:06;;;;;;;37.90;21.30;;;;;;;;;;5069923;28;20242;-56
2023/12/18 11:51:33;;;;;;;47.50;21.30;;;;;;;;;;5069341;28;20169;-55
2023/12/18 11:53:59;;;;;;;41.57;21.07;;;;;;;;;;5068940;28;20176;-57
2023/12/18 11:56:27;;;;;;;36.10;18.13;;;;;;;;;;5070546;28;20282;-55
2023/12/18 11:58:54;;;;;;;43.63;20.47;;;;;;;;;;5069824;28;20176;-55
2023/12/18 12:01:21;;;;;;;41.13;21.13;;;;;;;;;;5068731;28;20153;-56
2023/12/18 12:03:48;;;;;;;39.27;20.93;;;;;;;;;;5067643;28;20537;-57
2023/12/18 12:06:15;;;;;;;35.57;20.37;;;;;;;;;;5066960;28;20211;-55
2023/12/18 12:08:48;;;;;;;35.87;20.77;;;;;;;;;;5065680;28;20205;-55
2023/12/18 12:11:14;;;;;;;37.17;21.23;;;;;;;;;;5065583;28;20526;-55
2023/12/18 12:13:41;;;;;;;40.97;21.43;;;;;;;;;;5068185;28;20556;-56
2023/12/18 12:16:07;;;;;;;41.23;22.93;;;;;;;;;;5067788;28;20576;-53
2023/12/18 12:18:45;;;;;;;44.10;22.23;;;;;;;;;;5066939;28;20202;-55
2023/12/18 12:21:17;;;;;;;37.70;21.43;;;;;;;;;;5067863;28;20177;-56
2023/12/18 12:23:47;;;;;;;41.00;21.13;;;;;;;;;;5066539;28;20260;-54
2023/12/18 12:26:14;;;;;;;47.10;21.50;;;;;;;;;;5066622;28;20548;-55
2023/12/18 12:28:42;;;;;;;37.43;21.73;;;;;;;;;;5065997;28;20246;-53
2023/12/18 12:31:09;;;;;;;41.87;20.90;;;;;;;;;;5067817;28;20169;-55
2023/12/18 12:33:39;;;;;;;33.30;21.67;;;;;;;;;;5068403;28;20201;-57
2023/12/18 12:36:05;;;;;;;45.07;22.13;;;;;;;;;;5084170;28;20323;-57
2023/12/18 12:38:31;;;;;;;40.90;21.93;;;;;;;;;;5083005;28;20171;-52
2023/12/18 12:40:59;;;;;;;31.40;20.27;;;;;;;;;;5083358;28;20168;-55
2023/12/18 12:43:25;;;;;;;39.53;21.73;;;;;;;;;;5066007;28;20200;-56
2023/12/18 12:45:52;;;;;;;35.93;20.20;;;;;;;;;;5082350;28;20226;-55
2023/12/18 12:48:18;;;;;;;35.93;20.43;;;;;;;;;;5052330;28;20515;-53
2023/12/18 12:50:47;;;;;;;38.83;19.60;;;;;;;;;;5050744;28;20195;-52
2023/12/18 12:53:13;;;;;;;37.87;19.30;;;;;;;;;;5051327;28;20173;-53
2023/12/18 12:55:40;;;;;;;39.83;20.67;;;;;;;;;;5050018;28;20491;-53
2023/12/18 12:58:07;;;;;;;34.50;19.10;;;;;;;;;;5049328;28;20632;-55
2023/12/18 13:00:33;;;;;;;35.30;20.17;;;;;;;;;;5067076;28;20173;-55
2023/12/18 13:02:59;;;;;;;33.67;18.93;;;;;;;;;;5048061;28;20179;-56
2023/12/18 13:05:26;;;;;;;39.70;20.53;;;;;;;;;;5051342;28;20185;-55
2023/12/18 13:07:55;;;;;;;35.27;19.50;;;;;;;;;;5054997;28;20179;-56
2023/12/18 13:10:21;;;;;;;36.00;20.73;;;;;;;;;;5051244;28;20389;-56
2023/12/18 13:12:48;;;;;;;40.73;19.83;;;;;;;;;;5043272;28;20313;-55
2023/12/18 13:15:14;;;;;;;36.10;18.87;;;;;;;;;;5061971;28;20391;-55
2023/12/18 13:17:41;;;;;;;35.87;19.07;;;;;;;;;;5061659;28;20165;-53
2023/12/18 13:20:07;;;;;;;36.40;19.53;;;;;;;;;;5044468;28;20172;-53
2023/12/18 13:22:33;;;;;;;31.57;20.00;;;;;;;;;;5043863;28;20437;-54
2023/12/18 13:25:00;;;;;;;39.60;20.30;;;;;;;;;;5044633;28;20396;-55
2023/12/18 13:27:26;;;;;;;34.90;19.57;;;;;;;;;;5045191;28;20587;-53
2023/12/18 13:29:53;;;;;;;36.07;19.33;;;;;;;;;;5062458;28;20187;-54
2023/12/18 13:32:24;;;;;;;39.03;20.40;;;;;;;;;;5045595;28;20255;-55
2023/12/18 13:34:50;;;;;;;36.27;21.07;;;;;;;;;;5046920;28;20233;-53
2023/12/18 13:37:16;;;;;;;34.90;19.50;;;;;;;;;;5046749;28;20185;-54
2023/12/18 13:39:42;;;;;;;36.77;21.10;;;;;;;;;;5046263;28;20165;-51
2023/12/18 13:42:10;;;;;;;40.73;20.40;;;;;;;;;;5064307;28;20573;-52
2023/12/18 13:44:36;;;;;;;35.47;20.77;;;;;;;;;;5046523;28;20433;-56
2023/12/18 13:47:02;;;;;;;30.20;19.67;;;;;;;;;;5048803;28;20223;-53
2023/12/18 13:49:28;;;;;;;37.10;21.97;;;;;;;;;;5048916;28;20279;-52
2023/12/18 13:51:54;;;;;;;37.10;21.87;;;;;;;;;;5046021;28;20310;-56
2023/12/18 13:54:21;;;;;;;42.47;21.17;;;;;;;;;;5047073;28;20247;-50
2023/12/18 13:56:47;;;;;;;37.47;21.57;;;;;;;;;;5064915;28;20446;-51
2023/12/18 13:59:13;;;;;;;42.87;21.47;;;;;;;;;;5045903;28;20353;-56
2023/12/18 14:01:41;;;;;;;44.33;23.00;;;;;;;;;;5063328;28;20225;-55
2023/12/18 14:04:07;;;;;;;39.97;22.57;;;;;;;;;;5043268;28;20165;-54
2023/12/18 14:06:33;;;;;;;50.97;23.43;;;;;;;;;;5060750;28;20341;-54
2023/12/18 14:08:59;;;;;;;43.60;22.67;;;;;;;;;;5043505;28;20173;-55
2023/12/18 14:11:27;;;;;;;37.37;21.87;;;;;;;;;;5043125;28;20341;-55
2023/12/18 14:13:53;;;;;;;37.90;21.13;;;;;;;;;;5046018;28;20254;-52
2023/12/18 14:16:20;;;;;;;40.30;22.40;;;;;;;;;;5044655;28;20211;-55